Time;durP1;ratioP1;P1;durP2;ratioP2;P2;SDS_P1;SDS_P2;PMS_P1;PMS_P2;Temp;Humidity;BMP_temperature;BMP_pressure;BME280_temperature;BME280_humidity;BME280_pressure;Samples;Min_cycle;Max_cycle;Signal;HPM_P1;HPM_P2
2022/06/16 00:01:58;;;;;;;;;10.00;10.00;;;;;-142.59;100.00;56100.38;5074666;28;49553;-71
2022/06/16 00:04:25;;;;;;;;;11.00;11.00;;;;;-142.59;100.00;56100.38;5074437;28;50404;-72
2022/06/16 00:06:50;;;;;;;;;11.25;11.00;;;;;-142.59;100.00;56100.38;5074513;27;49653;-72
2022/06/16 00:09:16;;;;;;;;;13.75;12.75;;;;;-142.59;100.00;56100.38;5072717;28;49656;-72
2022/06/16 00:11:41;;;;;;;;;12.50;10.75;;;;;-142.59;100.00;56100.38;5074438;28;49925;-71
2022/06/16 00:14:07;;;;;;;;;11.25;11.25;;;;;-142.59;100.00;56100.38;5074305;28;50222;-72
2022/06/16 00:16:33;;;;;;;;;10.25;10.25;;;;;-142.59;100.00;56100.38;5073582;27;49756;-72
2022/06/16 00:18:58;;;;;;;;;13.00;12.25;;;;;-142.59;100.00;56100.38;5074377;27;49778;-72
2022/06/16 00:21:24;;;;;;;;;9.25;9.25;;;;;-142.59;100.00;56100.38;5072949;27;49599;-72
2022/06/16 00:23:49;;;;;;;;;10.50;10.50;;;;;-142.59;100.00;56100.38;5078570;27;50709;-72
2022/06/16 00:26:21;;;;;;;;;11.50;11.50;;;;;-142.59;100.00;56100.38;5089309;27;49571;-71
2022/06/16 00:28:47;;;;;;;;;15.75;15.00;;;;;-142.59;100.00;56100.38;5074350;27;49648;-71
2022/06/16 00:31:14;;;;;;;;;15.00;13.25;;;;;-142.59;100.00;56100.38;5086824;27;49779;-71
2022/06/16 00:33:40;;;;;;;;;18.25;15.00;;;;;-142.59;100.00;56100.38;5093956;27;50467;-71
2022/06/16 00:36:06;;;;;;;;;11.75;11.75;;;;;-142.59;100.00;56100.38;5094073;27;49712;-71
2022/06/16 00:38:32;;;;;;;;;12.25;12.00;;;;;-142.59;100.00;56100.38;5089408;27;49809;-71
2022/06/16 00:40:57;;;;;;;;;15.50;14.50;;;;;-142.59;100.00;56100.38;5080204;27;49891;-72
2022/06/16 00:43:23;;;;;;;;;17.50;14.75;;;;;-142.59;100.00;56100.38;5093764;27;50454;-73
2022/06/16 00:46:00;;;;;;;;;13.25;12.25;;;;;-142.59;100.00;56100.38;5092543;27;49696;-72
2022/06/16 00:48:43;;;;;;;;;13.50;11.00;;;;;-142.59;100.00;56100.38;5083933;27;49798;-71
2022/06/16 00:51:18;;;;;;;;;15.50;15.00;;;;;-142.59;100.00;56100.38;5088265;27;49823;-71
2022/06/16 00:53:45;;;;;;;;;10.75;10.75;;;;;-142.59;100.00;56100.38;5093522;27;49748;-72
2022/06/16 00:56:16;;;;;;;;;14.50;13.50;;;;;-142.59;100.00;56100.38;5088220;27;49812;-72
2022/06/16 00:58:45;;;;;;;;;13.25;13.25;;;;;-142.59;100.00;56100.38;5074684;27;49723;-72
2022/06/16 01:01:11;;;;;;;;;12.00;11.50;;;;;-142.59;100.00;56100.38;5073697;27;49889;-71
2022/06/16 01:06:24;;;;;;;;;14.50;14.25;;;;;-142.59;100.00;56100.38;5073901;27;49834;-71
2022/06/16 01:08:58;;;;;;;;;14.50;11.00;;;;;-142.59;100.00;56100.38;5073057;27;49798;-71
2022/06/16 01:15:09;;;;;;;;;12.50;12.50;;;;;-142.59;100.00;56100.38;5091546;27;50213;-72
2022/06/16 01:17:52;;;;;;;;;13.00;12.75;;;;;-142.59;100.00;56100.38;5073768;27;49916;-72
2022/06/16 01:20:33;;;;;;;;;16.25;14.50;;;;;-142.59;100.00;56100.38;5075193;27;49773;-72
2022/06/16 01:23:19;;;;;;;;;14.00;12.75;;;;;-142.59;100.00;56100.38;5093429;27;49925;-71
2022/06/16 01:26:06;;;;;;;;;15.50;14.75;;;;;-142.59;100.00;56100.38;5093521;27;50610;-72
2022/06/16 01:28:49;;;;;;;;;12.00;11.00;;;;;-142.59;100.00;56100.38;5095817;27;49916;-72
2022/06/16 01:31:24;;;;;;;;;11.50;11.50;;;;;-142.59;100.00;56100.38;5085076;27;49776;-71
2022/06/16 01:34:01;;;;;;;;;13.00;12.00;;;;;-142.59;100.00;56100.38;5077062;27;49807;-71
2022/06/16 01:36:36;;;;;;;;;16.00;14.50;;;;;-142.59;100.00;56100.38;5096530;27;51581;-71
2022/06/16 01:39:14;;;;;;;;;16.25;14.50;;;;;-142.59;100.00;56100.38;5094586;27;49866;-71
2022/06/16 01:41:50;;;;;;;;;15.00;14.00;;;;;-142.59;100.00;56100.38;5080361;27;49546;-71
2022/06/16 01:44:25;;;;;;;;;12.50;12.50;;;;;-142.59;100.00;56100.38;5066746;28;50024;-71
2022/06/16 01:46:59;;;;;;;;;15.25;14.00;;;;;-142.59;100.00;56100.38;5076464;28;50543;-71
2022/06/16 01:49:32;;;;;;;;;13.25;12.25;;;;;-142.59;100.00;56100.38;5076449;27;49891;-71
2022/06/16 01:52:04;;;;;;;;;14.00;12.25;;;;;-142.59;100.00;56100.38;5076466;28;49839;-71
2022/06/16 01:54:41;;;;;;;;;13.50;12.75;;;;;-142.59;100.00;56100.38;5076492;28;49838;-71
2022/06/16 01:57:12;;;;;;;;;15.00;14.00;;;;;-142.59;100.00;56100.38;5076471;28;49705;-72
2022/06/16 02:00:18;;;;;;;;;15.00;15.00;;;;;-142.59;100.00;56100.38;5076449;28;49731;-71
2022/06/16 02:02:43;;;;;;;;;11.75;11.75;;;;;-142.59;100.00;56100.38;5052526;27;49668;-71
2022/06/16 02:05:26;;;;;;;;;17.00;13.25;;;;;-142.59;100.00;56100.38;5079392;27;49746;-72
2022/06/16 02:07:59;;;;;;;;;11.75;11.75;;;;;-142.59;100.00;56100.38;5096549;27;50762;-72
2022/06/16 02:10:29;;;;;;;;;15.25;15.25;;;;;-142.59;100.00;56100.38;5077837;27;49734;-72
2022/06/16 02:12:58;;;;;;;;;13.75;13.00;;;;;-142.59;100.00;56100.38;5096494;27;49794;-72
2022/06/16 02:15:24;;;;;;;;;15.50;14.50;;;;;-142.59;100.00;56100.38;5095217;27;49859;-72
2022/06/16 02:17:50;;;;;;;;;13.00;13.00;;;;;-142.59;100.00;56100.38;5096323;27;50332;-72
2022/06/16 02:20:16;;;;;;;;;15.50;13.75;;;;;-142.59;100.00;56100.38;5076491;27;49668;-72
2022/06/16 02:22:41;;;;;;;;;13.00;11.75;;;;;-142.59;100.00;56100.38;5075689;27;49737;-72
2022/06/16 02:25:07;;;;;;;;;12.25;12.25;;;;;-142.59;100.00;56100.38;5076134;27;49534;-71
2022/06/16 02:27:32;;;;;;;;;10.00;8.25;;;;;-142.59;100.00;56100.38;5075482;27;49892;-72
2022/06/16 02:29:58;;;;;;;;;13.00;12.25;;;;;-142.59;100.00;56100.38;5094827;27;50038;-72
2022/06/16 02:32:37;;;;;;;;;16.75;15.50;;;;;-142.59;100.00;56100.38;5088768;27;49549;-72
2022/06/16 02:35:17;;;;;;;;;14.50;14.00;;;;;-142.59;100.00;56100.38;5075920;27;49597;-72
2022/06/16 02:37:57;;;;;;;;;13.50;13.50;;;;;-142.59;100.00;56100.38;5075214;27;49686;-71
2022/06/16 02:40:43;;;;;;;;;15.75;15.00;;;;;-142.59;100.00;56100.38;5075447;27;49686;-71
2022/06/16 02:43:21;;;;;;;;;14.50;13.75;;;;;-142.59;100.00;56100.38;5076622;27;50045;-72
2022/06/16 02:45:58;;;;;;;;;15.25;14.50;;;;;-142.59;100.00;56100.38;5075965;27;49910;-71
2022/06/16 02:49:08;;;;;;;;;17.25;16.25;;;;;-142.59;100.00;56100.38;5080526;27;50419;-72
2022/06/16 02:51:43;;;;;;;;;17.25;16.25;;;;;-142.59;100.00;56100.38;5069809;27;49769;-71
2022/06/16 02:54:27;;;;;;;;;17.25;16.75;;;;;-142.59;100.00;56100.38;5077761;27;49824;-71
2022/06/16 02:57:08;;;;;;;;;16.25;15.00;;;;;-142.59;100.00;56100.38;5075698;28;49721;-72
2022/06/16 02:59:45;;;;;;;;;16.50;16.50;;;;;-142.59;100.00;56100.38;5075136;27;49897;-72
2022/06/16 03:02:16;;;;;;;;;21.75;20.25;;;;;-142.59;100.00;56100.38;5074814;27;49566;-72
2022/06/16 03:04:45;;;;;;;;;15.00;14.00;;;;;-142.59;100.00;56100.38;5058987;27;49936;-71
2022/06/16 03:07:13;;;;;;;;;17.00;15.50;;;;;-142.59;100.00;56100.38;5093608;27;49672;-71
2022/06/16 03:09:39;;;;;;;;;14.00;14.00;;;;;-142.59;100.00;56100.38;5094863;27;49968;-72
2022/06/16 03:12:06;;;;;;;;;19.00;18.00;;;;;-142.59;100.00;56100.38;5095444;27;49925;-72
2022/06/16 03:14:31;;;;;;;;;14.25;14.25;;;;;-142.59;100.00;56100.38;5095813;27;49630;-72
2022/06/16 03:16:57;;;;;;;;;14.50;13.75;;;;;-142.59;100.00;56100.38;5095281;27;49592;-72
2022/06/16 03:19:22;;;;;;;;;19.25;13.50;;;;;-142.59;100.00;56100.38;5095467;27;49932;-72
2022/06/16 03:21:48;;;;;;;;;19.50;19.50;;;;;-142.59;100.00;56100.38;5095217;27;49688;-72
2022/06/16 03:24:14;;;;;;;;;17.00;15.75;;;;;-142.59;100.00;56100.38;5095569;27;49842;-72
2022/06/16 03:26:39;;;;;;;;;18.50;18.50;;;;;-142.59;100.00;56100.38;5091007;27;49667;-72
2022/06/16 03:29:05;;;;;;;;;16.50;14.75;;;;;-142.59;100.00;56100.38;5074814;28;49759;-72
2022/06/16 03:31:30;;;;;;;;;18.75;17.00;;;;;-142.59;100.00;56100.38;5074859;27;49665;-72
2022/06/16 03:33:56;;;;;;;;;17.25;15.50;;;;;-142.59;100.00;56100.38;5074979;28;49790;-72
2022/06/16 03:36:21;;;;;;;;;18.00;17.00;;;;;-142.59;100.00;56100.38;5075010;27;49753;-72
2022/06/16 03:38:47;;;;;;;;;18.25;16.50;;;;;-142.59;100.00;56100.38;5074675;27;49661;-71
2022/06/16 03:41:13;;;;;;;;;19.50;19.50;;;;;-142.59;100.00;56100.38;5086518;27;49803;-71
2022/06/16 03:43:39;;;;;;;;;15.75;14.75;;;;;-142.59;100.00;56100.38;5074966;28;49580;-71
2022/06/16 03:46:05;;;;;;;;;20.75;19.00;;;;;-142.59;100.00;56100.38;5074745;27;49899;-71
2022/06/16 03:48:31;;;;;;;;;17.50;17.50;;;;;-142.59;100.00;56100.38;5074572;28;50532;-71
2022/06/16 03:50:56;;;;;;;;;16.75;16.75;;;;;-142.59;100.00;56100.38;5080280;27;49685;-72
2022/06/16 03:53:22;;;;;;;;;18.75;18.75;;;;;-142.59;100.00;56100.38;5094960;27;49615;-74
2022/06/16 03:55:47;;;;;;;;;16.00;16.00;;;;;-142.59;100.00;56100.38;5094833;27;50200;-72
2022/06/16 03:58:13;;;;;;;;;17.00;17.00;;;;;-142.59;100.00;56100.38;5094462;27;50538;-71
2022/06/16 04:00:40;;;;;;;;;20.00;20.00;;;;;-142.59;100.00;56100.38;5088815;27;49989;-70
2022/06/16 04:05:50;;;;;;;;;22.75;15.75;;;;;-142.59;100.00;56100.38;5083677;27;49883;-72
2022/06/16 04:08:16;;;;;;;;;12.75;11.75;;;;;-142.59;100.00;56100.38;5094494;27;50449;-71
2022/06/16 04:10:43;;;;;;;;;16.00;14.75;;;;;-142.59;100.00;56100.38;5094627;27;49631;-72
2022/06/16 04:13:09;;;;;;;;;19.50;18.25;;;;;-142.59;100.00;56100.38;5093074;27;49890;-72
2022/06/16 04:15:35;;;;;;;;;17.50;16.50;;;;;-142.59;100.00;56100.38;5082488;27;49635;-69
2022/06/16 04:18:00;;;;;;;;;19.25;17.25;;;;;-142.59;100.00;56100.38;5074032;28;49909;-72
2022/06/16 04:20:27;;;;;;;;;15.00;15.00;;;;;-142.59;100.00;56100.38;5074276;28;49743;-72
2022/06/16 04:22:52;;;;;;;;;17.50;16.75;;;;;-142.59;100.00;56100.38;5074046;28;49713;-72
2022/06/16 04:25:21;;;;;;;;;15.75;15.75;;;;;-142.59;100.00;56100.38;5074364;27;49945;-72
2022/06/16 04:27:46;;;;;;;;;16.75;16.75;;;;;-142.59;100.00;56100.38;5073905;27;52204;-71
2022/06/16 04:30:14;;;;;;;;;21.75;19.00;;;;;-142.59;100.00;56100.38;5073992;28;49774;-71
2022/06/16 04:32:39;;;;;;;;;18.50;18.50;;;;;-142.59;100.00;56100.38;5074238;28;49674;-71
2022/06/16 04:35:05;;;;;;;;;20.50;20.25;;;;;-142.59;100.00;56100.38;5075194;27;49786;-71
2022/06/16 04:37:31;;;;;;;;;20.00;19.00;;;;;-142.59;100.00;56100.38;5073500;28;50796;-71
2022/06/16 04:39:56;;;;;;;;;16.00;16.00;;;;;-142.59;100.00;56100.38;5092202;27;49858;-71
2022/06/16 04:42:21;;;;;;;;;15.75;15.75;;;;;-142.59;100.00;56100.38;5075893;27;49603;-71
2022/06/16 04:44:47;;;;;;;;;19.25;15.00;;;;;-142.59;100.00;56100.38;5094123;27;49793;-71
2022/06/16 04:47:12;;;;;;;;;15.00;14.00;;;;;-142.59;100.00;56100.38;5094146;27;49595;-71
2022/06/16 04:49:37;;;;;;;;;19.50;19.25;;;;;-142.59;100.00;56100.38;5092412;27;49745;-71
2022/06/16 04:52:05;;;;;;;;;20.50;19.75;;;;;-142.59;100.00;56100.38;5075360;27;49677;-71
2022/06/16 04:54:30;;;;;;;;;15.00;15.00;;;;;-142.59;100.00;56100.38;5074477;27;49782;-71
2022/06/16 04:56:56;;;;;;;;;17.50;16.00;;;;;-142.59;100.00;56100.38;5073505;27;50383;-71
2022/06/16 04:59:21;;;;;;;;;19.25;19.00;;;;;-142.59;100.00;56100.38;5086763;27;49752;-71
2022/06/16 05:01:47;;;;;;;;;22.25;21.50;;;;;-142.59;100.00;56100.38;5093547;27;49625;-70
2022/06/16 05:04:12;;;;;;;;;22.25;22.25;;;;;-142.59;100.00;56100.38;5092353;27;49822;-71
2022/06/16 05:06:38;;;;;;;;;19.50;17.75;;;;;-142.59;100.00;56100.38;5093951;27;49662;-72
2022/06/16 05:09:03;;;;;;;;;21.50;18.00;;;;;-142.59;100.00;56100.38;5087453;27;50226;-71
2022/06/16 05:11:28;;;;;;;;;24.00;22.50;;;;;-142.59;100.00;56100.38;5073642;27;49872;-70
2022/06/16 05:13:54;;;;;;;;;20.00;19.50;;;;;-142.59;100.00;56100.38;5081677;27;49855;-70
2022/06/16 05:16:19;;;;;;;;;18.50;18.25;;;;;-142.59;100.00;56100.38;5093930;27;49736;-71
2022/06/16 05:18:44;;;;;;;;;18.75;18.75;;;;;-142.59;100.00;56100.38;5086666;27;49936;-69
2022/06/16 05:21:13;;;;;;;;;19.75;17.25;;;;;-142.59;100.00;56100.38;5073385;27;49653;-70
2022/06/16 05:23:40;;;;;;;;;22.25;18.25;;;;;-142.59;100.00;56100.38;5074332;27;50011;-77
2022/06/16 05:26:06;;;;;;;;;18.25;17.25;;;;;-142.59;100.00;56100.38;5090604;27;50097;-68
2022/06/16 05:28:32;;;;;;;;;19.75;17.00;;;;;-142.59;100.00;56100.38;5088360;27;49737;-68
2022/06/16 05:30:58;;;;;;;;;23.25;21.75;;;;;-142.59;100.00;56100.38;5073469;27;50162;-68
2022/06/16 05:33:24;;;;;;;;;16.00;15.75;;;;;-142.59;100.00;56100.38;5074656;27;49860;-67
2022/06/16 05:36:17;;;;;;;;;19.25;17.75;;;;;-142.59;100.00;56100.38;5073053;28;49589;-69
2022/06/16 05:38:42;;;;;;;;;22.00;19.75;;;;;-142.59;100.00;56100.38;5063034;27;49724;-69
2022/06/16 05:41:15;;;;;;;;;18.25;18.25;;;;;-142.59;100.00;56100.38;5093604;27;49781;-70
2022/06/16 05:43:41;;;;;;;;;20.00;18.50;;;;;-142.59;100.00;56100.38;5087267;27;49777;-69
2022/06/16 05:46:13;;;;;;;;;19.00;18.75;;;;;-142.59;100.00;56100.38;5072942;27;50293;-69
2022/06/16 05:48:39;;;;;;;;;19.75;18.75;;;;;-142.59;100.00;56100.38;5073991;27;49811;-67
2022/06/16 05:51:07;;;;;;;;;20.75;18.75;;;;;-142.59;100.00;56100.38;5072889;27;49724;-67
2022/06/16 05:53:34;;;;;;;;;19.00;17.75;;;;;-142.59;100.00;56100.38;5074199;27;50087;-67
2022/06/16 05:55:59;;;;;;;;;20.25;17.50;;;;;-142.59;100.00;56100.38;5072868;27;50114;-67
2022/06/16 05:58:25;;;;;;;;;20.75;20.00;;;;;-142.59;100.00;56100.38;5083863;27;54315;-67
2022/06/16 06:00:50;;;;;;;;;19.50;19.25;;;;;-142.59;100.00;56100.38;5073089;27;49787;-68
2022/06/16 06:03:15;;;;;;;;;22.25;22.25;;;;;-142.59;100.00;56100.38;5073004;27;49923;-67
2022/06/16 06:05:41;;;;;;;;;21.25;18.00;;;;;-142.59;100.00;56100.38;5072806;28;50680;-69
2022/06/16 06:19:28;;;;;;;;;20.25;19.00;;;;;-142.59;100.00;56100.38;5046835;28;49566;-68
2022/06/16 06:22:05;;;;;;;;;18.50;17.00;;;;;-142.59;100.00;56100.38;5091251;27;49649;-68
2022/06/16 06:24:34;;;;;;;;;19.25;19.25;;;;;-142.59;100.00;56100.38;5091047;27;49979;-67
2022/06/16 06:27:22;;;;;;;;;21.00;20.00;;;;;-142.59;100.00;56100.38;5075942;28;50751;-66
2022/06/16 06:29:49;;;;;;;;;20.75;18.25;;;;;-142.59;100.00;56100.38;5086033;27;49657;-66
2022/06/16 06:32:17;;;;;;;;;22.75;21.25;;;;;-142.59;100.00;56100.38;5076052;27;49621;-65
2022/06/16 06:34:43;;;;;;;;;17.75;17.75;;;;;-142.59;100.00;56100.38;5075965;27;49974;-74
2022/06/16 06:37:13;;;;;;;;;17.25;17.00;;;;;-142.59;100.00;56100.38;5075448;27;50859;-79
2022/06/16 06:39:39;;;;;;;;;18.00;17.50;;;;;-142.59;100.00;56100.38;5075432;27;49522;-75
2022/06/16 06:42:05;;;;;;;;;17.50;16.75;;;;;-142.59;100.00;56100.38;5073259;27;50335;-69
2022/06/16 06:44:31;;;;;;;;;20.00;20.00;;;;;-142.59;100.00;56100.38;5073798;27;50083;-68
2022/06/16 06:46:57;;;;;;;;;20.75;20.75;;;;;-142.59;100.00;56100.38;5075145;28;50454;-70
2022/06/16 06:49:23;;;;;;;;;17.25;17.25;;;;;-142.59;100.00;56100.38;5076126;27;49819;-68
2022/06/16 06:51:48;;;;;;;;;16.00;13.75;;;;;-142.59;100.00;56100.38;5076166;27;49806;-70
2022/06/16 06:54:14;;;;;;;;;15.75;14.75;;;;;-142.59;100.00;56100.38;5075199;27;49497;-72
2022/06/16 06:56:40;;;;;;;;;18.00;17.25;;;;;-142.59;100.00;56100.38;5085897;27;50467;-68
2022/06/16 06:59:09;;;;;;;;;13.50;13.00;;;;;-142.59;100.00;56100.38;5091164;27;49788;-68
2022/06/16 07:01:34;;;;;;;;;15.00;15.00;;;;;-142.59;100.00;56100.38;5095177;27;49845;-67
2022/06/16 07:04:00;;;;;;;;;16.00;16.00;;;;;-142.59;100.00;56100.38;5076741;27;50404;-68
2022/06/16 07:06:26;;;;;;;;;15.25;14.50;;;;;-142.59;100.00;56100.38;5074340;28;50816;-69
2022/06/16 07:08:51;;;;;;;;;15.25;14.00;;;;;-142.59;100.00;56100.38;5078961;27;49750;-69
2022/06/16 07:11:17;;;;;;;;;13.75;12.75;;;;;-142.59;100.00;56100.38;5089693;27;49679;-69
2022/06/16 07:13:43;;;;;;;;;14.25;14.00;;;;;-142.59;100.00;56100.38;5067661;28;49974;-69
2022/06/16 07:16:09;;;;;;;;;13.50;11.00;;;;;-142.59;100.00;56100.38;5073149;27;50403;-69
2022/06/16 07:18:35;;;;;;;;;12.50;12.50;;;;;-142.59;100.00;56100.38;5090882;27;49918;-69
2022/06/16 07:21:01;;;;;;;;;15.25;13.75;;;;;-142.59;100.00;56100.38;5085668;27;49926;-68
2022/06/16 07:23:27;;;;;;;;;12.75;12.75;;;;;-142.59;100.00;56100.38;5090863;27;49586;-69
2022/06/16 07:25:52;;;;;;;;;13.00;12.00;;;;;-142.59;100.00;56100.38;5086937;27;50384;-69
2022/06/16 07:28:18;;;;;;;;;14.75;14.75;;;;;-142.59;100.00;56100.38;5077726;27;49566;-69
2022/06/16 07:30:44;;;;;;;;;13.75;11.25;;;;;-142.59;100.00;56100.38;5095247;27;49588;-71
2022/06/16 07:33:12;;;;;;;;;13.50;10.50;;;;;-142.59;100.00;56100.38;5085848;27;49763;-70
2022/06/16 07:35:40;;;;;;;;;13.25;13.25;;;;;-142.59;100.00;56100.38;5090235;27;49849;-70
2022/06/16 07:38:05;;;;;;;;;13.25;11.75;;;;;-142.59;100.00;56100.38;5074941;28;49803;-70
2022/06/16 07:40:30;;;;;;;;;12.50;10.00;;;;;-142.59;100.00;56100.38;5074994;27;49693;-70
2022/06/16 07:42:59;;;;;;;;;15.00;13.25;;;;;-142.59;100.00;56100.38;5087008;27;50515;-70
2022/06/16 07:45:26;;;;;;;;;14.25;13.25;;;;;-142.59;100.00;56100.38;5095213;27;49710;-68
2022/06/16 07:47:52;;;;;;;;;10.75;10.25;;;;;-142.59;100.00;56100.38;5087738;27;49748;-68
2022/06/16 07:50:18;;;;;;;;;8.75;8.25;;;;;-142.59;100.00;56100.38;5073337;28;49765;-68
2022/06/16 07:52:43;;;;;;;;;11.25;11.25;;;;;-142.59;100.00;56100.38;5074554;28;49855;-69
2022/06/16 07:55:09;;;;;;;;;6.50;5.75;;;;;-142.59;100.00;56100.38;5074282;28;50450;-68
2022/06/16 07:57:43;;;;;;;;;9.25;9.25;;;;;-142.59;100.00;56100.38;5074722;28;49582;-68
2022/06/16 08:00:12;;;;;;;;;10.25;9.25;;;;;-142.59;100.00;56100.38;5082651;27;49775;-67
2022/06/16 08:02:37;;;;;;;;;8.25;8.25;;;;;-142.59;100.00;56100.38;5095257;27;49795;-68
2022/06/16 08:05:04;;;;;;;;;10.50;10.50;;;;;-142.59;100.00;56100.38;5094998;27;50450;-69
2022/06/16 08:07:29;;;;;;;;;8.00;8.00;;;;;-142.59;100.00;56100.38;5095073;27;49654;-67
2022/06/16 08:09:55;;;;;;;;;14.00;12.00;;;;;-142.59;100.00;56100.38;5094681;27;50032;-68
2022/06/16 08:12:20;;;;;;;;;10.00;10.00;;;;;-142.59;100.00;56100.38;5076794;27;49963;-68
2022/06/16 08:14:47;;;;;;;;;6.25;6.25;;;;;-142.59;100.00;56100.38;5094753;27;50242;-67
2022/06/16 08:17:21;;;;;;;;;11.25;11.25;;;;;-142.59;100.00;56100.38;5094982;27;49700;-69
2022/06/16 08:19:47;;;;;;;;;9.00;9.00;;;;;-142.59;100.00;56100.38;5094959;27;49817;-69
2022/06/16 08:22:12;;;;;;;;;9.25;9.25;;;;;-142.59;100.00;56100.38;5094460;27;49651;-68
2022/06/16 08:24:38;;;;;;;;;13.00;9.00;;;;;-142.59;100.00;56100.38;5093767;27;50573;-68
2022/06/16 08:27:05;;;;;;;;;12.75;8.75;;;;;-142.59;100.00;56100.38;5094496;27;49520;-68
2022/06/16 08:29:32;;;;;;;;;9.75;7.00;;;;;-142.59;100.00;56100.38;5093808;27;49793;-68
2022/06/16 08:31:59;;;;;;;;;11.00;8.25;;;;;-142.59;100.00;56100.38;5093523;27;49809;-68
2022/06/16 08:34:25;;;;;;;;;10.50;9.00;;;;;-142.59;100.00;56100.38;5069585;27;51281;-69
2022/06/16 08:36:51;;;;;;;;;6.00;6.00;;;;;-142.59;100.00;56100.38;5066218;27;49778;-68
2022/06/16 08:39:17;;;;;;;;;8.25;8.25;;;;;-142.59;100.00;56100.38;5081513;27;49653;-70
2022/06/16 08:41:48;;;;;;;;;10.00;8.50;;;;;-142.59;100.00;56100.38;5091931;27;49736;-67
2022/06/16 08:44:40;;;;;;;;;7.75;7.75;;;;;-142.59;100.00;56100.38;5094171;27;51340;-67
2022/06/16 08:47:16;;;;;;;;;7.25;7.25;;;;;-142.59;100.00;56100.38;5094196;27;49564;-68
2022/06/16 08:49:53;;;;;;;;;8.00;8.00;;;;;-142.59;100.00;56100.38;5094035;27;49760;-67
2022/06/16 08:52:37;;;;;;;;;6.25;6.25;;;;;-142.59;100.00;56100.38;5083331;27;49751;-68
2022/06/16 08:55:20;;;;;;;;;6.00;4.75;;;;;-142.59;100.00;56100.38;5088567;27;50816;-69
2022/06/16 08:58:10;;;;;;;;;9.25;9.25;;;;;-142.59;100.00;56100.38;5068375;27;49830;-67
2022/06/16 09:00:45;;;;;;;;;8.00;8.00;;;;;-142.59;100.00;56100.38;5078511;27;49839;-69
2022/06/16 09:03:19;;;;;;;;;5.25;5.25;;;;;-142.59;100.00;56100.38;5093019;27;49890;-68
2022/06/16 09:06:06;;;;;;;;;9.50;7.00;;;;;-142.59;100.00;56100.38;5073398;28;49599;-68
2022/06/16 09:08:59;;;;;;;;;8.00;7.00;;;;;-142.59;100.00;56100.38;5073265;27;49643;-67
2022/06/16 09:11:41;;;;;;;;;6.75;6.75;;;;;-142.59;100.00;56100.38;5073310;28;49544;-68
2022/06/16 09:17:58;;;;;;;;;6.00;5.25;;;;;-142.59;100.00;56100.38;5053843;28;49806;-67
2022/06/16 09:20:40;;;;;;;;;7.50;7.50;;;;;-142.59;100.00;56100.38;5054001;28;49634;-69
2022/06/16 09:23:40;;;;;;;;;8.00;8.00;;;;;-142.59;100.00;56100.38;5091901;27;49690;-68
2022/06/16 09:26:31;;;;;;;;;10.75;10.00;;;;;-142.59;100.00;56100.38;5073686;27;49968;-68
2022/06/16 09:29:05;;;;;;;;;8.00;7.25;;;;;-142.59;100.00;56100.38;5073103;27;50662;-68
2022/06/16 09:31:38;;;;;;;;;10.00;8.00;;;;;-142.59;100.00;56100.38;5073065;27;49708;-71
2022/06/16 09:34:12;;;;;;;;;6.50;6.50;;;;;-142.59;100.00;56100.38;5073250;27;49682;-71
2022/06/16 09:36:44;;;;;;;;;6.00;6.00;;;;;-142.59;100.00;56100.38;5073307;28;49774;-70
2022/06/16 09:39:25;;;;;;;;;5.00;5.00;;;;;-142.59;100.00;56100.38;5072706;28;49646;-70
2022/06/16 09:45:06;;;;;;;;;10.00;6.75;;;;;-142.59;100.00;56100.38;5073054;28;49726;-70
2022/06/16 09:47:54;;;;;;;;;7.00;7.00;;;;;-142.59;100.00;56100.38;5073606;28;49804;-69
2022/06/16 09:50:26;;;;;;;;;9.00;9.00;;;;;-142.59;100.00;56100.38;5076205;28;49711;-68
2022/06/16 09:53:01;;;;;;;;;7.75;7.75;;;;;-142.59;100.00;56100.38;5075741;27;49766;-69
2022/06/16 09:55:37;;;;;;;;;10.75;9.75;;;;;-142.59;100.00;56100.38;5076096;27;49695;-70
2022/06/16 09:58:25;;;;;;;;;9.00;6.50;;;;;-142.59;100.00;56100.38;5076654;28;49624;-69
2022/06/16 10:00:55;;;;;;;;;7.25;6.25;;;;;-142.59;100.00;56100.38;5058007;28;50388;-71
2022/06/16 10:03:20;;;;;;;;;9.00;9.00;;;;;-142.59;100.00;56100.38;5076269;27;49622;-70
2022/06/16 10:06:10;;;;;;;;;5.25;5.00;;;;;-142.59;100.00;56100.38;5076333;27;49547;-68
2022/06/16 10:08:40;;;;;;;;;6.00;6.00;;;;;-142.59;100.00;56100.38;5076615;28;49872;-70
2022/06/16 10:11:33;;;;;;;;;13.00;8.00;;;;;-142.59;100.00;56100.38;5075812;27;49894;-69
2022/06/16 10:14:30;;;;;;;;;7.25;7.25;;;;;-142.59;100.00;56100.38;5076189;28;49661;-68
2022/06/16 10:16:59;;;;;;;;;6.75;6.75;;;;;-142.59;100.00;56100.38;5076119;27;49898;-68
2022/06/16 10:19:29;;;;;;;;;8.00;8.00;;;;;-142.59;100.00;56100.38;5076341;28;49609;-69
2022/06/16 10:21:55;;;;;;;;;7.25;7.00;;;;;-142.59;100.00;56100.38;5075865;28;50534;-71
2022/06/16 10:24:25;;;;;;;;;4.75;4.75;;;;;-142.59;100.00;56100.38;5075666;27;49894;-69
2022/06/16 10:26:51;;;;;;;;;6.00;6.00;;;;;-142.59;100.00;56100.38;5076155;28;49691;-68
2022/06/16 10:29:26;;;;;;;;;7.25;6.00;;;;;-142.59;100.00;56100.38;5075963;28;49844;-71
2022/06/16 10:31:54;;;;;;;;;6.00;6.00;;;;;-142.59;100.00;56100.38;5075616;27;51163;-68
2022/06/16 10:34:32;;;;;;;;;7.25;7.25;;;;;-142.59;100.00;56100.38;5075355;28;49683;-68
2022/06/16 10:37:20;;;;;;;;;7.75;5.25;;;;;-142.59;100.00;56100.38;5075840;28;49681;-69
2022/06/16 10:39:58;;;;;;;;;8.25;6.00;;;;;-142.59;100.00;56100.38;5061102;27;49891;-68
2022/06/16 10:42:27;;;;;;;;;7.25;6.00;;;;;-142.59;100.00;56100.38;5075615;28;49724;-68
2022/06/16 10:44:59;;;;;;;;;8.00;7.00;;;;;-142.59;100.00;56100.38;5075560;28;49693;-67
2022/06/16 10:47:33;;;;;;;;;8.50;8.50;;;;;-142.59;100.00;56100.38;5075467;27;49842;-67
2022/06/16 10:50:00;;;;;;;;;6.25;4.50;;;;;-142.59;100.00;56100.38;5075561;28;49533;-68
2022/06/16 10:52:32;;;;;;;;;7.25;7.25;;;;;-142.59;100.00;56100.38;5075003;28;50681;-67
2022/06/16 10:55:00;;;;;;;;;11.50;9.00;;;;;-142.59;100.00;56100.38;5075125;28;49876;-67
2022/06/16 10:57:32;;;;;;;;;11.75;11.50;;;;;-142.59;100.00;56100.38;5076350;27;49690;-67
2022/06/16 11:00:14;;;;;;;;;7.00;7.00;;;;;-142.59;100.00;56100.38;5074161;27;50017;-72
2022/06/16 11:02:55;;;;;;;;;7.00;7.00;;;;;-142.59;100.00;56100.38;5084910;27;50982;-69
2022/06/16 11:05:21;;;;;;;;;7.00;7.00;;;;;-142.59;100.00;56100.38;5075271;27;49880;-69
2022/06/16 11:07:46;;;;;;;;;7.75;7.75;;;;;-142.59;100.00;56100.38;5095583;27;49640;-68
2022/06/16 11:10:16;;;;;;;;;7.75;6.75;;;;;-142.59;100.00;56100.38;5087069;27;49679;-68
2022/06/16 11:12:47;;;;;;;;;9.25;7.00;;;;;-142.59;100.00;56100.38;5079593;27;50654;-72
2022/06/16 11:15:33;;;;;;;;;9.50;6.50;;;;;-142.59;100.00;56100.38;5077083;27;50384;-65
2022/06/16 11:18:02;;;;;;;;;9.50;8.75;;;;;-142.59;100.00;56100.38;5078826;27;49848;-67
2022/06/16 11:20:49;;;;;;;;;11.75;11.00;;;;;-142.59;100.00;56100.38;5082551;27;49884;-67
2022/06/16 11:23:18;;;;;;;;;10.25;10.25;;;;;-142.59;100.00;56100.38;5081983;27;49813;-67
2022/06/16 11:25:44;;;;;;;;;9.75;9.75;;;;;-142.59;100.00;56100.38;5094928;27;49959;-67
2022/06/16 11:28:10;;;;;;;;;6.50;6.50;;;;;-142.59;100.00;56100.38;5086946;27;49742;-66
2022/06/16 11:30:47;;;;;;;;;7.50;7.50;;;;;-142.59;100.00;56100.38;5075081;28;49749;-67
2022/06/16 11:36:42;;;;;;;;;8.00;8.00;;;;;-142.59;100.00;56100.38;5093503;27;49898;-67
2022/06/16 11:39:13;;;;;;;;;8.00;8.00;;;;;-142.59;100.00;56100.38;5076694;27;49791;-67
2022/06/16 11:41:44;;;;;;;;;12.75;11.25;;;;;-142.59;100.00;56100.38;5095523;27;49878;-67
2022/06/16 11:44:21;;;;;;;;;7.50;6.50;;;;;-142.59;100.00;56100.38;5095283;27;50384;-67